Time,TemperatureF,DewpointF,PressureIn,WindDirection,WindDirectionDegrees,WindSpeedMPH,WindSpeedGustMPH,Humidity,HourlyPrecipIn,Conditions,Clouds,dailyrainin,SoftwareType,DateUTC
2013-01-05 00:07:00,32.8,27.0,29.62,SSW,194,0.0,3.0,80,0.00,,,0.00,weatherlink.com 1.10,2013-01-05 05:07:00,
2013-01-05 00:21:00,32.7,28.0,29.62,SSW,207,0.0,5.0,81,0.00,,,0.00,weatherlink.com 1.10,2013-01-05 05:21:00,
2013-01-05 00:36:00,32.8,28.0,29.61,SSW,200,1.0,5.0,81,0.00,,,0.00,weatherlink.com 1.10,2013-01-05 05:36:00,
2013-01-05 00:51:00,32.8,27.0,29.62,SSW,202,1.0,4.0,80,0.00,,,0.00,weatherlink.com 1.10,2013-01-05 05:51:00,
2013-01-05 01:06:00,32.5,27.0,29.62,South,180,1.0,4.0,81,0.00,,,0.00,weatherlink.com 1.10,2013-01-05 06:06:00,
2013-01-05 01:21:00,32.4,27.0,29.62,SSW,196,0.0,3.0,81,0.00,,,0.00,weatherlink.com 1.10,2013-01-05 06:21:00,
2013-01-05 01:36:00,31.9,27.0,29.62,South,182,0.0,2.0,82,0.00,,,0.00,weatherlink.com 1.10,2013-01-05 06:36:00,
2013-01-05 01:51:00,32.1,27.0,29.62,SSW,207,0.0,4.0,82,0.00,,,0.00,weatherlink.com 1.10,2013-01-05 06:51:00,
2013-01-05 02:06:00,32.4,27.0,29.63,SSW,200,1.0,5.0,81,0.00,,,0.00,weatherlink.com 1.10,2013-01-05 07:06:00,
2013-01-05 02:21:00,32.5,27.0,29.63,SW,236,4.0,7.0,80,0.00,,,0.00,weatherlink.com 1.10,2013-01-05 07:21:00,
2013-01-05 02:36:00,32.9,27.0,29.63,SSW,208,3.0,8.0,79,0.00,,,0.00,weatherlink.com 1.10,2013-01-05 07:36:00,
2013-01-05 02:51:00,32.9,27.0,29.63,SSW,211,5.0,8.0,79,0.00,,,0.00,weatherlink.com 1.10,2013-01-05 07:51:00,
2013-01-05 03:06:00,32.9,27.0,29.63,WSW,242,3.0,7.0,80,0.00,,,0.00,weatherlink.com 1.10,2013-01-05 08:06:00,
2013-01-05 03:21:00,33.0,27.0,29.63,WNW,286,0.0,7.0,79,0.00,,,0.00,weatherlink.com 1.10,2013-01-05 08:21:00,
2013-01-05 03:36:00,32.9,27.0,29.63,SSW,209,2.0,13.0,78,0.00,,,0.00,weatherlink.com 1.10,2013-01-05 08:36:00,
2013-01-05 03:51:00,32.5,26.0,29.63,SW,218,5.0,10.0,77,0.00,,,0.00,weatherlink.com 1.10,2013-01-05 08:51:00,
2013-01-05 04:07:00,32.4,26.0,29.63,SW,227,7.0,9.0,77,0.00,,,0.00,weatherlink.com 1.10,2013-01-05 09:07:00,
2013-01-05 04:22:00,32.4,26.0,29.64,South,179,2.0,11.0,77,0.00,,,0.00,weatherlink.com 1.10,2013-01-05 09:22:00,
2013-01-05 04:37:00,32.2,26.0,29.65,SW,215,4.0,7.0,77,0.00,,,0.00,weatherlink.com 1.10,2013-01-05 09:37:00,
2013-01-05 04:52:00,32.2,26.0,29.65,SSW,213,3.0,9.0,77,0.00,,,0.00,weatherlink.com 1.10,2013-01-05 09:52:00,
2013-01-05 05:07:00,32.4,26.0,29.66,SW,222,4.0,12.0,76,0.00,,,0.00,weatherlink.com 1.10,2013-01-05 10:07:00,
2013-01-05 05:22:00,32.4,26.0,29.66,SSW,204,5.0,14.0,76,0.00,,,0.00,weatherlink.com 1.10,2013-01-05 10:22:00,
2013-01-05 05:37:00,32.3,26.0,29.67,WSW,243,1.0,12.0,76,0.00,,,0.00,weatherlink.com 1.10,2013-01-05 10:37:00,
2013-01-05 05:52:00,32.3,26.0,29.68,SSW,205,5.0,8.0,76,0.00,,,0.00,weatherlink.com 1.10,2013-01-05 10:52:00,
2013-01-05 06:07:00,31.9,25.0,29.68,SW,219,7.0,8.0,76,0.00,,,0.00,weatherlink.com 1.10,2013-01-05 11:07:00,
2013-01-05 06:22:00,31.7,25.0,29.69,SSW,202,1.0,7.0,77,0.00,,,0.00,weatherlink.com 1.10,2013-01-05 11:22:00,
2013-01-05 06:37:00,31.8,25.0,29.70,SSW,198,4.0,12.0,77,0.00,,,0.00,weatherlink.com 1.10,2013-01-05 11:37:00,
2013-01-05 07:07:00,30.7,27.0,29.73,SSW,207,1.0,7.0,85,0.00,,,0.00,weatherlink.com 1.10,2013-01-05 12:07:00,
2013-01-05 07:22:00,29.8,26.0,29.75,West,261,2.0,7.0,87,0.00,,,0.00,weatherlink.com 1.10,2013-01-05 12:22:00,
2013-01-05 07:37:00,29.9,26.0,29.77,West,278,0.0,7.0,86,0.00,,,0.00,weatherlink.com 1.10,2013-01-05 12:37:00,
2013-01-05 07:52:00,30.1,26.0,29.78,WSW,239,5.0,8.0,85,0.00,,,0.00,weatherlink.com 1.10,2013-01-05 12:52:00,
2013-01-05 08:07:00,30.1,26.0,29.79,West,264,1.0,6.0,83,0.00,,,0.00,weatherlink.com 1.10,2013-01-05 13:07:00,
2013-01-05 08:22:00,30.5,25.0,29.80,SSW,203,0.0,7.0,79,0.00,,,0.00,weatherlink.com 1.10,2013-01-05 13:22:00,
2013-01-05 08:37:00,31.0,25.0,29.82,SW,229,0.0,12.0,77,0.00,,,0.00,weatherlink.com 1.10,2013-01-05 13:37:00,
2013-01-05 08:52:00,31.6,23.0,29.82,SW,236,3.0,11.0,70,0.00,,,0.00,weatherlink.com 1.10,2013-01-05 13:52:00,
2013-01-05 09:08:00,32.1,19.0,29.84,WSW,251,9.0,16.0,58,0.00,,,0.00,weatherlink.com 1.10,2013-01-05 14:08:00,
2013-01-05 09:23:00,32.3,17.0,29.85,SSW,201,12.0,15.0,54,0.00,,,0.00,weatherlink.com 1.10,2013-01-05 14:23:00,
2013-01-05 09:38:00,32.6,17.0,29.86,WSW,245,5.0,16.0,54,0.00,,,0.00,weatherlink.com 1.10,2013-01-05 14:38:00,
2013-01-05 09:53:00,32.5,17.0,29.88,WSW,251,11.0,16.0,54,0.00,,,0.00,weatherlink.com 1.10,2013-01-05 14:53:00,
2013-01-05 10:08:00,32.5,19.0,29.89,NE,40,2.0,12.0,58,0.00,,,0.00,weatherlink.com 1.10,2013-01-05 15:08:00,
2013-01-05 10:23:00,32.5,17.0,29.90,NW,318,7.0,20.0,54,0.00,,,0.00,weatherlink.com 1.10,2013-01-05 15:23:00,
2013-01-05 10:38:00,32.0,16.0,29.90,WNW,297,6.0,19.0,51,0.00,,,0.00,weatherlink.com 1.10,2013-01-05 15:38:00,
2013-01-05 10:53:00,32.1,16.0,29.91,NNE,17,6.0,18.0,51,0.00,,,0.00,weatherlink.com 1.10,2013-01-05 15:53:00,
2013-01-05 11:08:00,31.5,15.0,29.92,North,355,1.0,12.0,50,0.00,,,0.00,weatherlink.com 1.10,2013-01-05 16:08:00,
2013-01-05 11:23:00,31.1,14.0,29.93,West,277,2.0,14.0,49,0.01,,,0.01,weatherlink.com 1.10,2013-01-05 16:23:00,
2013-01-05 11:38:00,30.5,14.0,29.94,NW,324,8.0,14.0,51,0.01,,,0.01,weatherlink.com 1.10,2013-01-05 16:38:00,
2013-01-05 11:53:00,29.5,13.0,29.94,WSW,257,11.0,18.0,51,0.01,,,0.01,weatherlink.com 1.10,2013-01-05 16:53:00,
2013-01-05 12:08:00,28.5,13.0,29.96,WSW,252,1.0,17.0,52,0.01,,,0.01,weatherlink.com 1.10,2013-01-05 17:08:00,
2013-01-05 12:23:00,27.8,12.0,29.96,West,259,9.0,17.0,52,0.00,,,0.01,weatherlink.com 1.10,2013-01-05 17:23:00,
2013-01-05 12:38:00,27.6,11.0,29.97,NE,37,3.0,14.0,51,0.00,,,0.01,weatherlink.com 1.10,2013-01-05 17:38:00,
2013-01-05 12:53:00,27.5,11.0,29.99,West,278,2.0,14.0,50,0.00,,,0.01,weatherlink.com 1.10,2013-01-05 17:53:00,
2013-01-05 13:08:00,27.6,10.0,30.00,WSW,238,8.0,16.0,47,0.00,,,0.01,weatherlink.com 1.10,2013-01-05 18:08:00,
2013-01-05 13:23:00,27.4,9.0,30.01,WNW,283,2.0,11.0,46,0.00,,,0.01,weatherlink.com 1.10,2013-01-05 18:23:00,
2013-01-05 13:38:00,27.4,9.0,30.01,WSW,255,1.0,10.0,47,0.00,,,0.01,weatherlink.com 1.10,2013-01-05 18:38:00,
2013-01-05 13:53:00,27.0,10.0,30.02,West,262,2.0,8.0,48,0.00,,,0.01,weatherlink.com 1.10,2013-01-05 18:53:00,
2013-01-05 14:08:00,26.7,8.0,30.04,NNE,33,0.0,11.0,46,0.00,,,0.01,weatherlink.com 1.10,2013-01-05 19:08:00,
2013-01-05 14:24:00,26.6,10.0,30.05,West,274,1.0,7.0,50,0.00,,,0.01,weatherlink.com 1.10,2013-01-05 19:24:00,
2013-01-05 14:39:00,26.1,8.0,30.06,ESE,108,1.0,11.0,46,0.00,,,0.01,weatherlink.com 1.10,2013-01-05 19:39:00,
2013-01-05 14:54:00,25.6,8.0,30.07,SE,128,0.0,9.0,47,0.00,,,0.01,weatherlink.com 1.10,2013-01-05 19:54:00,
2013-01-05 15:09:00,25.3,8.0,30.08,NW,311,1.0,8.0,47,0.00,,,0.01,weatherlink.com 1.10,2013-01-05 20:09:00,
2013-01-05 15:24:00,24.8,7.0,30.09,NW,318,0.0,9.0,46,0.00,,,0.01,weatherlink.com 1.10,2013-01-05 20:24:00,
2013-01-05 15:39:00,24.3,7.0,30.09,South,188,2.0,10.0,47,0.00,,,0.01,weatherlink.com 1.10,2013-01-05 20:39:00,
2013-01-05 15:54:00,23.8,7.0,30.09,SSW,205,2.0,7.0,48,0.00,,,0.01,weatherlink.com 1.10,2013-01-05 20:54:00,
2013-01-05 16:09:00,23.1,6.0,30.09,NNE,18,0.0,5.0,49,0.00,,,0.01,weatherlink.com 1.10,2013-01-05 21:09:00,
2013-01-05 16:24:00,22.4,7.0,30.10,WNW,287,0.0,5.0,51,0.00,,,0.01,weatherlink.com 1.10,2013-01-05 21:24:00,
2013-01-05 16:39:00,22.3,7.0,30.12,West,271,0.0,3.0,52,0.00,,,0.01,weatherlink.com 1.10,2013-01-05 21:39:00,
2013-01-05 16:54:00,21.4,7.0,30.12,SSW,198,2.0,3.0,53,0.00,,,0.01,weatherlink.com 1.10,2013-01-05 21:54:00,
2013-01-05 17:09:00,20.5,7.0,30.13,NW,312,0.0,4.0,56,0.00,,,0.01,weatherlink.com 1.10,2013-01-05 22:09:00,
2013-01-05 17:24:00,20.9,7.0,30.14,West,275,0.0,5.0,54,0.00,,,0.01,weatherlink.com 1.10,2013-01-05 22:24:00,
2013-01-05 17:39:00,19.0,6.0,30.13,West,261,0.0,3.0,58,0.00,,,0.01,weatherlink.com 1.10,2013-01-05 22:39:00,
2013-01-05 17:54:00,19.9,6.0,30.14,WSW,241,2.0,4.0,56,0.00,,,0.01,weatherlink.com 1.10,2013-01-05 22:54:00,
2013-01-05 18:09:00,18.4,7.0,30.14,WSW,252,0.0,3.0,61,0.00,,,0.01,weatherlink.com 1.10,2013-01-05 23:09:00,
2013-01-05 18:24:00,18.6,7.0,30.15,WNW,296,0.0,4.0,61,0.00,,,0.01,weatherlink.com 1.10,2013-01-05 23:24:00,
2013-01-05 18:39:00,18.9,6.0,30.15,NNW,344,0.0,5.0,58,0.00,,,0.01,weatherlink.com 1.10,2013-01-05 23:39:00,
2013-01-05 18:54:00,17.8,6.0,30.16,WNW,285,0.0,4.0,61,0.00,,,0.01,weatherlink.com 1.10,2013-01-05 23:54:00,
2013-01-05 19:09:00,16.3,6.0,30.15,West,263,1.0,2.0,65,0.00,,,0.01,weatherlink.com 1.10,2013-01-06 00:09:00,
2013-01-05 19:24:00,16.8,7.0,30.16,SSW,194,0.0,1.0,64,0.00,,,0.01,weatherlink.com 1.10,2013-01-06 00:24:00,
2013-01-05 19:39:00,16.4,7.0,30.17,SSW,208,0.0,4.0,66,0.00,,,0.01,weatherlink.com 1.10,2013-01-06 00:39:00,
2013-01-05 19:54:00,16.4,6.0,30.17,SSW,213,0.0,1.0,63,0.00,,,0.01,weatherlink.com 1.10,2013-01-06 00:54:00,
2013-01-05 20:10:00,15.4,7.0,30.17,NW,313,0.0,4.0,68,0.00,,,0.01,weatherlink.com 1.10,2013-01-06 01:10:00,
2013-01-05 20:25:00,15.0,7.0,30.18,West,268,2.0,3.0,70,0.00,,,0.01,weatherlink.com 1.10,2013-01-06 01:25:00,
2013-01-05 20:40:00,15.4,7.0,30.20,West,259,0.0,0.0,68,0.00,,,0.01,weatherlink.com 1.10,2013-01-06 01:40:00,
2013-01-05 20:55:00,14.9,7.0,30.20,West,259,0.0,2.0,71,0.00,,,0.01,weatherlink.com 1.10,2013-01-06 01:55:00,
2013-01-05 21:10:00,14.2,7.0,30.20,WSW,252,2.0,3.0,73,0.00,,,0.01,weatherlink.com 1.10,2013-01-06 02:10:00,
2013-01-05 21:25:00,13.4,7.0,30.20,WSW,252,0.0,0.0,75,0.00,,,0.01,weatherlink.com 1.10,2013-01-06 02:25:00,
2013-01-05 21:40:00,12.5,7.0,30.20,WSW,252,0.0,0.0,77,0.00,,,0.01,weatherlink.com 1.10,2013-01-06 02:40:00,
2013-01-05 21:55:00,11.8,6.0,30.19,WSW,252,2.0,2.0,78,0.00,,,0.01,weatherlink.com 1.10,2013-01-06 02:55:00,
2013-01-05 22:10:00,11.4,6.0,30.20,WSW,251,2.0,3.0,79,0.00,,,0.01,weatherlink.com 1.10,2013-01-06 03:10:00,
2013-01-05 22:25:00,11.0,6.0,30.20,WSW,251,1.0,2.0,80,0.00,,,0.01,weatherlink.com 1.10,2013-01-06 03:25:00,
2013-01-05 22:40:00,11.0,6.0,30.20,WSW,247,0.0,3.0,79,0.00,,,0.01,weatherlink.com 1.10,2013-01-06 03:40:00,
2013-01-05 22:55:00,10.4,6.0,30.21,SW,235,1.0,3.0,81,0.00,,,0.01,weatherlink.com 1.10,2013-01-06 03:55:00,
2013-01-05 23:10:00,10.2,6.0,30.20,SW,221,0.0,3.0,82,0.00,,,0.01,weatherlink.com 1.10,2013-01-06 04:10:00,
2013-01-05 23:25:00,9.5,5.0,30.19,SW,228,0.0,2.0,83,0.00,,,0.01,weatherlink.com 1.10,2013-01-06 04:25:00,
2013-01-05 23:40:00,10.9,7.0,30.18,NW,311,0.0,2.0,85,0.00,,,0.01,weatherlink.com 1.10,2013-01-06 04:40:00,
2013-01-05 23:55:00,13.6,10.0,30.18,WNW,298,0.0,7.0,86,0.00,,,0.01,weatherlink.com 1.10,2013-01-06 04:55:00,